sensor_id;sensor_type;location;lat;lon;timestamp;P1;durP1;ratioP1;P2;durP2;ratioP2
6037;SDS011;3047;42.600;23.470;2022-07-29T00:01:48;7.97;;;7.18;;
6037;SDS011;3047;42.600;23.470;2022-07-29T00:04:18;9.52;;;7.43;;
6037;SDS011;3047;42.600;23.470;2022-07-29T00:06:45;8.52;;;7.00;;
6037;SDS011;3047;42.600;23.470;2022-07-29T00:09:12;8.80;;;7.05;;
6037;SDS011;3047;42.600;23.470;2022-07-29T00:11:39;8.80;;;6.78;;
6037;SDS011;3047;42.600;23.470;2022-07-29T00:14:05;9.35;;;7.18;;
6037;SDS011;3047;42.600;23.470;2022-07-29T00:16:32;8.55;;;7.50;;
6037;SDS011;3047;42.600;23.470;2022-07-29T00:18:59;8.40;;;7.35;;
6037;SDS011;3047;42.600;23.470;2022-07-29T00:21:27;7.82;;;7.03;;
6037;SDS011;3047;42.600;23.470;2022-07-29T00:23:54;9.07;;;7.05;;
6037;SDS011;3047;42.600;23.470;2022-07-29T00:26:21;9.43;;;6.93;;
6037;SDS011;3047;42.600;23.470;2022-07-29T00:28:48;8.88;;;7.22;;
6037;SDS011;3047;42.600;23.470;2022-07-29T00:31:14;7.95;;;6.57;;
6037;SDS011;3047;42.600;23.470;2022-07-29T00:33:41;8.70;;;6.93;;
6037;SDS011;3047;42.600;23.470;2022-07-29T00:36:08;8.95;;;7.40;;
6037;SDS011;3047;42.600;23.470;2022-07-29T00:38:35;7.68;;;6.90;;
6037;SDS011;3047;42.600;23.470;2022-07-29T00:41:01;9.90;;;6.43;;
6037;SDS011;3047;42.600;23.470;2022-07-29T00:43:28;8.50;;;6.63;;
6037;SDS011;3047;42.600;23.470;2022-07-29T00:45:55;7.85;;;6.50;;
6037;SDS011;3047;42.600;23.470;2022-07-29T00:48:21;8.15;;;7.00;;
6037;SDS011;3047;42.600;23.470;2022-07-29T00:50:48;7.55;;;6.75;;
6037;SDS011;3047;42.600;23.470;2022-07-29T00:53:15;9.70;;;6.43;;
6037;SDS011;3047;42.600;23.470;2022-07-29T00:55:44;8.20;;;6.20;;
6037;SDS011;3047;42.600;23.470;2022-07-29T00:58:11;9.10;;;7.40;;
6037;SDS011;3047;42.600;23.470;2022-07-29T01:00:39;6.53;;;5.88;;
6037;SDS011;3047;42.600;23.470;2022-07-29T01:03:06;6.50;;;5.80;;
6037;SDS011;3047;42.600;23.470;2022-07-29T01:05:33;10.68;;;6.25;;
6037;SDS011;3047;42.600;23.470;2022-07-29T01:08:01;8.77;;;6.75;;
6037;SDS011;3047;42.600;23.470;2022-07-29T01:10:28;6.70;;;6.03;;
6037;SDS011;3047;42.600;23.470;2022-07-29T01:12:57;6.72;;;6.13;;
6037;SDS011;3047;42.600;23.470;2022-07-29T01:15:25;6.70;;;6.05;;
6037;SDS011;3047;42.600;23.470;2022-07-29T01:17:55;7.88;;;5.32;;
6037;SDS011;3047;42.600;23.470;2022-07-29T01:20:31;10.65;;;5.90;;
6037;SDS011;3047;42.600;23.470;2022-07-29T01:26:28;7.80;;;5.70;;
6037;SDS011;3047;42.600;23.470;2022-07-29T01:29:03;7.85;;;5.75;;
6037;SDS011;3047;42.600;23.470;2022-07-29T01:31:34;6.50;;;5.35;;
6037;SDS011;3047;42.600;23.470;2022-07-29T01:34:07;5.72;;;5.22;;
6037;SDS011;3047;42.600;23.470;2022-07-29T01:36:37;6.70;;;6.00;;
6037;SDS011;3047;42.600;23.470;2022-07-29T01:39:11;7.07;;;5.25;;
6037;SDS011;3047;42.600;23.470;2022-07-29T01:41:43;6.85;;;5.28;;
6037;SDS011;3047;42.600;23.470;2022-07-29T01:44:18;8.20;;;6.13;;
6037;SDS011;3047;42.600;23.470;2022-07-29T01:46:49;6.45;;;5.95;;
6037;SDS011;3047;42.600;23.470;2022-07-29T01:49:21;6.22;;;4.72;;
6037;SDS011;3047;42.600;23.470;2022-07-29T01:51:51;6.35;;;5.70;;
6037;SDS011;3047;42.600;23.470;2022-07-29T01:54:21;10.85;;;5.65;;
6037;SDS011;3047;42.600;23.470;2022-07-29T01:56:55;6.40;;;5.90;;
6037;SDS011;3047;42.600;23.470;2022-07-29T01:59:24;6.93;;;5.15;;
6037;SDS011;3047;42.600;23.470;2022-07-29T02:01:53;5.65;;;5.00;;
6037;SDS011;3047;42.600;23.470;2022-07-29T02:04:21;10.30;;;5.22;;
6037;SDS011;3047;42.600;23.470;2022-07-29T02:06:50;6.20;;;5.63;;
6037;SDS011;3047;42.600;23.470;2022-07-29T02:09:19;10.93;;;5.57;;
6037;SDS011;3047;42.600;23.470;2022-07-29T02:11:49;8.00;;;4.50;;
6037;SDS011;3047;42.600;23.470;2022-07-29T02:14:21;7.72;;;4.82;;
6037;SDS011;3047;42.600;23.470;2022-07-29T02:16:52;6.57;;;5.68;;
6037;SDS011;3047;42.600;23.470;2022-07-29T02:19:21;5.97;;;5.18;;
6037;SDS011;3047;42.600;23.470;2022-07-29T02:21:51;6.70;;;4.93;;
6037;SDS011;3047;42.600;23.470;2022-07-29T02:24:19;6.30;;;5.05;;
6037;SDS011;3047;42.600;23.470;2022-07-29T02:26:49;5.38;;;4.88;;
6037;SDS011;3047;42.600;23.470;2022-07-29T02:29:17;5.88;;;4.85;;
6037;SDS011;3047;42.600;23.470;2022-07-29T02:31:47;5.43;;;4.93;;
6037;SDS011;3047;42.600;23.470;2022-07-29T02:34:17;6.03;;;5.53;;
6037;SDS011;3047;42.600;23.470;2022-07-29T02:36:46;8.82;;;5.72;;
6037;SDS011;3047;42.600;23.470;2022-07-29T02:39:14;5.07;;;4.65;;
6037;SDS011;3047;42.600;23.470;2022-07-29T02:41:42;8.77;;;5.25;;
6037;SDS011;3047;42.600;23.470;2022-07-29T02:44:13;5.45;;;4.95;;
6037;SDS011;3047;42.600;23.470;2022-07-29T02:46:42;6.60;;;4.88;;
6037;SDS011;3047;42.600;23.470;2022-07-29T02:49:16;5.18;;;4.68;;
6037;SDS011;3047;42.600;23.470;2022-07-29T02:51:50;5.00;;;4.53;;
6037;SDS011;3047;42.600;23.470;2022-07-29T02:54:26;5.15;;;4.38;;
6037;SDS011;3047;42.600;23.470;2022-07-29T02:56:58;5.60;;;4.68;;
6037;SDS011;3047;42.600;23.470;2022-07-29T02:59:27;8.88;;;4.75;;
6037;SDS011;3047;42.600;23.470;2022-07-29T03:01:57;5.40;;;4.85;;
6037;SDS011;3047;42.600;23.470;2022-07-29T03:04:27;4.75;;;4.07;;
6037;SDS011;3047;42.600;23.470;2022-07-29T03:06:58;4.53;;;4.13;;
6037;SDS011;3047;42.600;23.470;2022-07-29T03:09:26;7.10;;;3.75;;
6037;SDS011;3047;42.600;23.470;2022-07-29T03:11:54;5.85;;;4.07;;
6037;SDS011;3047;42.600;23.470;2022-07-29T03:14:21;6.35;;;4.13;;
6037;SDS011;3047;42.600;23.470;2022-07-29T03:16:49;5.57;;;5.13;;
6037;SDS011;3047;42.600;23.470;2022-07-29T03:19:17;4.10;;;3.72;;
6037;SDS011;3047;42.600;23.470;2022-07-29T03:21:46;6.45;;;4.45;;
6037;SDS011;3047;42.600;23.470;2022-07-29T03:24:24;5.00;;;4.20;;
6037;SDS011;3047;42.600;23.470;2022-07-29T03:26:51;5.40;;;3.67;;
6037;SDS011;3047;42.600;23.470;2022-07-29T03:29:18;5.43;;;3.88;;
6037;SDS011;3047;42.600;23.470;2022-07-29T03:31:45;4.78;;;3.35;;
6037;SDS011;3047;42.600;23.470;2022-07-29T03:34:12;4.03;;;3.58;;
6037;SDS011;3047;42.600;23.470;2022-07-29T03:36:38;4.43;;;4.03;;
6037;SDS011;3047;42.600;23.470;2022-07-29T03:39:07;4.22;;;3.90;;
6037;SDS011;3047;42.600;23.470;2022-07-29T03:41:35;4.57;;;4.10;;
6037;SDS011;3047;42.600;23.470;2022-07-29T03:44:03;3.47;;;3.17;;
6037;SDS011;3047;42.600;23.470;2022-07-29T03:46:31;4.85;;;3.53;;
6037;SDS011;3047;42.600;23.470;2022-07-29T03:49:02;3.85;;;3.08;;
6037;SDS011;3047;42.600;23.470;2022-07-29T03:51:30;4.32;;;3.83;;
6037;SDS011;3047;42.600;23.470;2022-07-29T03:53:57;5.05;;;3.78;;
6037;SDS011;3047;42.600;23.470;2022-07-29T03:56:26;4.07;;;3.75;;
6037;SDS011;3047;42.600;23.470;2022-07-29T03:58:54;4.15;;;3.25;;
6037;SDS011;3047;42.600;23.470;2022-07-29T04:01:21;3.95;;;3.65;;
6037;SDS011;3047;42.600;23.470;2022-07-29T04:03:50;3.78;;;3.50;;
6037;SDS011;3047;42.600;23.470;2022-07-29T04:06:17;4.55;;;4.20;;
6037;SDS011;3047;42.600;23.470;2022-07-29T04:08:44;5.45;;;3.45;;
6037;SDS011;3047;42.600;23.470;2022-07-29T04:11:10;4.25;;;3.88;;
6037;SDS011;3047;42.600;23.470;2022-07-29T04:13:39;7.13;;;6.05;;
6037;SDS011;3047;42.600;23.470;2022-07-29T04:16:05;6.05;;;4.32;;
6037;SDS011;3047;42.600;23.470;2022-07-29T04:18:32;4.65;;;4.25;;
6037;SDS011;3047;42.600;23.470;2022-07-29T04:20:59;4.68;;;4.20;;
6037;SDS011;3047;42.600;23.470;2022-07-29T04:23:26;3.42;;;3.17;;
6037;SDS011;3047;42.600;23.470;2022-07-29T04:25:53;5.22;;;4.72;;
6037;SDS011;3047;42.600;23.470;2022-07-29T04:28:19;4.90;;;4.13;;
6037;SDS011;3047;42.600;23.470;2022-07-29T04:30:47;4.75;;;3.85;;
6037;SDS011;3047;42.600;23.470;2022-07-29T04:33:14;4.07;;;3.72;;
6037;SDS011;3047;42.600;23.470;2022-07-29T04:35:41;4.13;;;3.80;;
6037;SDS011;3047;42.600;23.470;2022-07-29T04:38:07;5.65;;;4.63;;
6037;SDS011;3047;42.600;23.470;2022-07-29T04:40:34;4.40;;;4.05;;
6037;SDS011;3047;42.600;23.470;2022-07-29T04:43:01;5.13;;;4.72;;
6037;SDS011;3047;42.600;23.470;2022-07-29T04:45:28;4.40;;;3.60;;
6037;SDS011;3047;42.600;23.470;2022-07-29T04:47:56;9.23;;;4.07;;
6037;SDS011;3047;42.600;23.470;2022-07-29T04:50:23;5.00;;;4.60;;
6037;SDS011;3047;42.600;23.470;2022-07-29T04:52:49;4.40;;;4.05;;
6037;SDS011;3047;42.600;23.470;2022-07-29T04:55:16;9.55;;;6.97;;
6037;SDS011;3047;42.600;23.470;2022-07-29T04:57:43;5.80;;;5.22;;
6037;SDS011;3047;42.600;23.470;2022-07-29T05:00:10;6.63;;;5.82;;
6037;SDS011;3047;42.600;23.470;2022-07-29T05:02:37;5.93;;;5.25;;
6037;SDS011;3047;42.600;23.470;2022-07-29T05:05:06;6.60;;;5.88;;
6037;SDS011;3047;42.600;23.470;2022-07-29T05:07:33;8.88;;;6.47;;
6037;SDS011;3047;42.600;23.470;2022-07-29T05:10:00;6.65;;;6.05;;
6037;SDS011;3047;42.600;23.470;2022-07-29T05:12:26;9.93;;;5.53;;
6037;SDS011;3047;42.600;23.470;2022-07-29T05:14:53;5.28;;;4.82;;
6037;SDS011;3047;42.600;23.470;2022-07-29T05:17:20;5.55;;;5.05;;
6037;SDS011;3047;42.600;23.470;2022-07-29T05:19:47;6.55;;;4.68;;
6037;SDS011;3047;42.600;23.470;2022-07-29T05:22:17;4.50;;;4.10;;
6037;SDS011;3047;42.600;23.470;2022-07-29T05:24:44;5.95;;;5.35;;
6037;SDS011;3047;42.600;23.470;2022-07-29T05:27:11;12.50;;;5.63;;
6037;SDS011;3047;42.600;23.470;2022-07-29T05:29:37;9.40;;;5.68;;
6037;SDS011;3047;42.600;23.470;2022-07-29T05:32:04;5.93;;;5.32;;
6037;SDS011;3047;42.600;23.470;2022-07-29T05:34:31;9.10;;;4.78;;
6037;SDS011;3047;42.600;23.470;2022-07-29T05:36:58;6.88;;;5.32;;
6037;SDS011;3047;42.600;23.470;2022-07-29T05:39:26;5.35;;;4.85;;
6037;SDS011;3047;42.600;23.470;2022-07-29T05:41:53;5.00;;;4.60;;
6037;SDS011;3047;42.600;23.470;2022-07-29T05:44:19;5.50;;;4.63;;
6037;SDS011;3047;42.600;23.470;2022-07-29T05:46:46;5.18;;;4.72;;
6037;SDS011;3047;42.600;23.470;2022-07-29T05:49:13;5.35;;;4.85;;
6037;SDS011;3047;42.600;23.470;2022-07-29T05:51:40;5.82;;;5.10;;
6037;SDS011;3047;42.600;23.470;2022-07-29T05:54:06;6.00;;;5.07;;
6037;SDS011;3047;42.600;23.470;2022-07-29T05:56:36;10.68;;;5.80;;
6037;SDS011;3047;42.600;23.470;2022-07-29T05:59:03;8.07;;;6.38;;
6037;SDS011;3047;42.600;23.470;2022-07-29T06:01:30;9.77;;;6.53;;
6037;SDS011;3047;42.600;23.470;2022-07-29T06:03:57;11.15;;;5.70;;
6037;SDS011;3047;42.600;23.470;2022-07-29T06:06:24;5.30;;;4.90;;
6037;SDS011;3047;42.600;23.470;2022-07-29T06:08:51;7.25;;;4.57;;
6037;SDS011;3047;42.600;23.470;2022-07-29T06:11:17;7.70;;;4.93;;
6037;SDS011;3047;42.600;23.470;2022-07-29T06:13:45;9.07;;;6.03;;
6037;SDS011;3047;42.600;23.470;2022-07-29T06:16:12;6.60;;;5.18;;
6037;SDS011;3047;42.600;23.470;2022-07-29T06:18:39;5.72;;;5.30;;
6037;SDS011;3047;42.600;23.470;2022-07-29T06:21:07;8.13;;;6.22;;
6037;SDS011;3047;42.600;23.470;2022-07-29T06:23:35;6.32;;;5.72;;
6037;SDS011;3047;42.600;23.470;2022-07-29T06:26:02;8.07;;;6.38;;
6037;SDS011;3047;42.600;23.470;2022-07-29T06:28:29;5.93;;;5.38;;
6037;SDS011;3047;42.600;23.470;2022-07-29T06:30:57;9.18;;;5.70;;
6037;SDS011;3047;42.600;23.470;2022-07-29T06:33:24;5.70;;;5.10;;
6037;SDS011;3047;42.600;23.470;2022-07-29T06:35:51;8.82;;;5.45;;
6037;SDS011;3047;42.600;23.470;2022-07-29T06:38:17;7.63;;;5.22;;
6037;SDS011;3047;42.600;23.470;2022-07-29T06:40:44;5.90;;;4.93;;
6037;SDS011;3047;42.600;23.470;2022-07-29T06:43:28;5.63;;;5.13;;
6037;SDS011;3047;42.600;23.470;2022-07-29T06:46:04;4.72;;;4.32;;
6037;SDS011;3047;42.600;23.470;2022-07-29T06:48:31;5.55;;;5.07;;
6037;SDS011;3047;42.600;23.470;2022-07-29T06:50:59;5.70;;;4.72;;
6037;SDS011;3047;42.600;23.470;2022-07-29T06:53:26;6.40;;;5.00;;
6037;SDS011;3047;42.600;23.470;2022-07-29T06:55:53;4.95;;;4.18;;
6037;SDS011;3047;42.600;23.470;2022-07-29T06:58:20;4.43;;;4.03;;
6037;SDS011;3047;42.600;23.470;2022-07-29T07:00:47;4.43;;;4.03;;
6037;SDS011;3047;42.600;23.470;2022-07-29T07:03:16;4.93;;;4.53;;
6037;SDS011;3047;42.600;23.470;2022-07-29T07:05:43;7.47;;;3.75;;
6037;SDS011;3047;42.600;23.470;2022-07-29T07:08:10;3.95;;;3.50;;
6037;SDS011;3047;42.600;23.470;2022-07-29T07:10:37;4.25;;;3.92;;
6037;SDS011;3047;42.600;23.470;2022-07-29T07:13:05;4.03;;;3.53;;
6037;SDS011;3047;42.600;23.470;2022-07-29T07:15:32;4.88;;;4.25;;
6037;SDS011;3047;42.600;23.470;2022-07-29T07:17:59;8.18;;;4.00;;
6037;SDS011;3047;42.600;23.470;2022-07-29T07:20:27;4.50;;;3.55;;
6037;SDS011;3047;42.600;23.470;2022-07-29T07:22:54;5.47;;;3.53;;
6037;SDS011;3047;42.600;23.470;2022-07-29T07:25:20;3.80;;;3.13;;
6037;SDS011;3047;42.600;23.470;2022-07-29T07:27:47;4.88;;;3.97;;
6037;SDS011;3047;42.600;23.470;2022-07-29T07:30:14;3.90;;;3.60;;
6037;SDS011;3047;42.600;23.470;2022-07-29T07:32:41;7.10;;;4.35;;
6037;SDS011;3047;42.600;23.470;2022-07-29T07:35:08;6.15;;;4.07;;
6037;SDS011;3047;42.600;23.470;2022-07-29T07:37:37;3.85;;;3.53;;
6037;SDS011;3047;42.600;23.470;2022-07-29T07:40:06;4.97;;;3.20;;
6037;SDS011;3047;42.600;23.470;2022-07-29T07:42:34;4.68;;;3.05;;
6037;SDS011;3047;42.600;23.470;2022-07-29T07:45:01;5.80;;;3.30;;
6037;SDS011;3047;42.600;23.470;2022-07-29T07:47:27;3.53;;;2.90;;
6037;SDS011;3047;42.600;23.470;2022-07-29T07:49:54;3.17;;;2.97;;
6037;SDS011;3047;42.600;23.470;2022-07-29T07:52:21;3.33;;;3.03;;
6037;SDS011;3047;42.600;23.470;2022-07-29T07:54:49;2.97;;;2.75;;
6037;SDS011;3047;42.600;23.470;2022-07-29T07:57:16;2.92;;;2.63;;
6037;SDS011;3047;42.600;23.470;2022-07-29T07:59:43;4.10;;;3.35;;
6037;SDS011;3047;42.600;23.470;2022-07-29T08:02:10;4.20;;;2.88;;
6037;SDS011;3047;42.600;23.470;2022-07-29T08:04:36;2.38;;;2.17;;
6037;SDS011;3047;42.600;23.470;2022-07-29T08:07:05;2.88;;;2.67;;
6037;SDS011;3047;42.600;23.470;2022-07-29T08:09:33;3.65;;;3.30;;
6037;SDS011;3047;42.600;23.470;2022-07-29T08:12:02;4.05;;;3.65;;
6037;SDS011;3047;42.600;23.470;2022-07-29T08:14:30;2.72;;;2.53;;
6037;SDS011;3047;42.600;23.470;2022-07-29T08:16:58;4.28;;;2.63;;
6037;SDS011;3047;42.600;23.470;2022-07-29T08:19:25;2.33;;;2.22;;
6037;SDS011;3047;42.600;23.470;2022-07-29T08:21:52;2.90;;;2.42;;
6037;SDS011;3047;42.600;23.470;2022-07-29T08:24:19;2.80;;;2.47;;
6037;SDS011;3047;42.600;23.470;2022-07-29T08:27:05;4.00;;;2.63;;
6037;SDS011;3047;42.600;23.470;2022-07-29T08:29:31;3.53;;;2.10;;
6037;SDS011;3047;42.600;23.470;2022-07-29T08:31:58;2.58;;;2.40;;
6037;SDS011;3047;42.600;23.470;2022-07-29T08:34:25;3.25;;;2.78;;
6037;SDS011;3047;42.600;23.470;2022-07-29T08:36:53;3.92;;;2.78;;
6037;SDS011;3047;42.600;23.470;2022-07-29T08:39:20;5.72;;;3.25;;
6037;SDS011;3047;42.600;23.470;2022-07-29T08:41:47;4.07;;;3.53;;
6037;SDS011;3047;42.600;23.470;2022-07-29T08:44:17;4.03;;;2.65;;
6037;SDS011;3047;42.600;23.470;2022-07-29T08:46:44;3.13;;;2.83;;
6037;SDS011;3047;42.600;23.470;2022-07-29T08:49:11;4.20;;;3.03;;
6037;SDS011;3047;42.600;23.470;2022-07-29T08:51:38;4.97;;;3.58;;
6037;SDS011;3047;42.600;23.470;2022-07-29T08:54:06;4.35;;;2.83;;
6037;SDS011;3047;42.600;23.470;2022-07-29T08:56:35;5.60;;;3.08;;
6037;SDS011;3047;42.600;23.470;2022-07-29T08:59:02;3.78;;;3.28;;
6037;SDS011;3047;42.600;23.470;2022-07-29T09:01:35;4.40;;;3.78;;
6037;SDS011;3047;42.600;23.470;2022-07-29T09:04:04;3.72;;;3.42;;
6037;SDS011;3047;42.600;23.470;2022-07-29T09:06:36;3.90;;;3.65;;
6037;SDS011;3047;42.600;23.470;2022-07-29T09:09:08;3.53;;;3.30;;
6037;SDS011;3047;42.600;23.470;2022-07-29T09:11:35;4.90;;;3.80;;
6037;SDS011;3047;42.600;23.470;2022-07-29T09:14:05;4.93;;;3.60;;
6037;SDS011;3047;42.600;23.470;2022-07-29T09:16:49;5.03;;;4.68;;
6037;SDS011;3047;42.600;23.470;2022-07-29T09:19:25;5.65;;;4.72;;
6037;SDS011;3047;42.600;23.470;2022-07-29T09:21:54;4.10;;;3.70;;
6037;SDS011;3047;42.600;23.470;2022-07-29T09:24:24;4.55;;;4.15;;
6037;SDS011;3047;42.600;23.470;2022-07-29T09:26:51;4.57;;;4.18;;
6037;SDS011;3047;42.600;23.470;2022-07-29T09:29:19;5.57;;;3.35;;
6037;SDS011;3047;42.600;23.470;2022-07-29T09:31:46;4.65;;;4.25;;
6037;SDS011;3047;42.600;23.470;2022-07-29T09:34:17;3.05;;;2.85;;
6037;SDS011;3047;42.600;23.470;2022-07-29T09:36:49;3.92;;;3.63;;
6037;SDS011;3047;42.600;23.470;2022-07-29T09:39:26;7.60;;;3.70;;
6037;SDS011;3047;42.600;23.470;2022-07-29T09:41:55;3.67;;;3.28;;
6037;SDS011;3047;42.600;23.470;2022-07-29T09:44:23;5.22;;;3.53;;
6037;SDS011;3047;42.600;23.470;2022-07-29T09:46:59;3.80;;;3.55;;
6037;SDS011;3047;42.600;23.470;2022-07-29T09:49:31;3.90;;;3.60;;
6037;SDS011;3047;42.600;23.470;2022-07-29T09:51:59;3.38;;;3.08;;
6037;SDS011;3047;42.600;23.470;2022-07-29T09:54:29;3.20;;;3.00;;
6037;SDS011;3047;42.600;23.470;2022-07-29T09:57:03;3.58;;;3.20;;
6037;SDS011;3047;42.600;23.470;2022-07-29T09:59:32;4.25;;;3.15;;
6037;SDS011;3047;42.600;23.470;2022-07-29T10:02:01;3.65;;;2.80;;
6037;SDS011;3047;42.600;23.470;2022-07-29T10:04:38;5.38;;;3.13;;
6037;SDS011;3047;42.600;23.470;2022-07-29T10:07:05;3.30;;;2.97;;
6037;SDS011;3047;42.600;23.470;2022-07-29T10:09:33;3.10;;;2.90;;
6037;SDS011;3047;42.600;23.470;2022-07-29T10:12:04;3.45;;;3.00;;
6037;SDS011;3047;42.600;23.470;2022-07-29T10:14:33;3.05;;;2.85;;
6037;SDS011;3047;42.600;23.470;2022-07-29T10:17:02;3.42;;;3.15;;
6037;SDS011;3047;42.600;23.470;2022-07-29T10:19:30;3.22;;;3.03;;
6037;SDS011;3047;42.600;23.470;2022-07-29T10:21:58;4.85;;;3.03;;
6037;SDS011;3047;42.600;23.470;2022-07-29T10:24:25;3.17;;;2.90;;
6037;SDS011;3047;42.600;23.470;2022-07-29T10:26:53;3.65;;;3.00;;
6037;SDS011;3047;42.600;23.470;2022-07-29T10:29:23;3.45;;;2.80;;
6037;SDS011;3047;42.600;23.470;2022-07-29T10:31:54;4.50;;;2.70;;
6037;SDS011;3047;42.600;23.470;2022-07-29T10:34:35;5.72;;;3.05;;
6037;SDS011;3047;42.600;23.470;2022-07-29T10:37:12;2.90;;;2.70;;
6037;SDS011;3047;42.600;23.470;2022-07-29T10:39:48;4.18;;;3.70;;
6037;SDS011;3047;42.600;23.470;2022-07-29T10:42:27;3.22;;;2.97;;
6037;SDS011;3047;42.600;23.470;2022-07-29T10:44:57;3.42;;;3.22;;
6037;SDS011;3047;42.600;23.470;2022-07-29T10:47:26;4.30;;;3.72;;
6037;SDS011;3047;42.600;23.470;2022-07-29T10:49:56;3.65;;;2.67;;
6037;SDS011;3047;42.600;23.470;2022-07-29T10:52:24;3.05;;;2.85;;
6037;SDS011;3047;42.600;23.470;2022-07-29T10:55:26;3.88;;;3.20;;
6037;SDS011;3047;42.600;23.470;2022-07-29T10:58:10;3.40;;;3.10;;
6037;SDS011;3047;42.600;23.470;2022-07-29T11:00:40;3.50;;;3.20;;
6037;SDS011;3047;42.600;23.470;2022-07-29T11:06:18;3.78;;;3.13;;
6037;SDS011;3047;42.600;23.470;2022-07-29T11:08:45;4.38;;;3.97;;
6037;SDS011;3047;42.600;23.470;2022-07-29T11:11:30;4.05;;;3.72;;
6037;SDS011;3047;42.600;23.470;2022-07-29T11:14:02;4.20;;;3.92;;
6037;SDS011;3047;42.600;23.470;2022-07-29T11:19:34;4.63;;;3.65;;
6037;SDS011;3047;42.600;23.470;2022-07-29T11:22:07;4.43;;;4.13;;
6037;SDS011;3047;42.600;23.470;2022-07-29T11:24:35;3.00;;;2.80;;
6037;SDS011;3047;42.600;23.470;2022-07-29T11:27:15;4.25;;;3.85;;
6037;SDS011;3047;42.600;23.470;2022-07-29T11:29:51;4.20;;;2.92;;
6037;SDS011;3047;42.600;23.470;2022-07-29T11:32:22;3.80;;;3.45;;
6037;SDS011;3047;42.600;23.470;2022-07-29T11:35:12;3.58;;;3.28;;
6037;SDS011;3047;42.600;23.470;2022-07-29T11:37:42;3.50;;;3.30;;
6037;SDS011;3047;42.600;23.470;2022-07-29T11:40:15;4.03;;;3.25;;
6037;SDS011;3047;42.600;23.470;2022-07-29T11:42:46;6.07;;;4.05;;
6037;SDS011;3047;42.600;23.470;2022-07-29T11:45:16;4.95;;;3.20;;
6037;SDS011;3047;42.600;23.470;2022-07-29T11:47:51;3.58;;;3.22;;
6037;SDS011;3047;42.600;23.470;2022-07-29T11:50:34;4.38;;;3.75;;
6037;SDS011;3047;42.600;23.470;2022-07-29T11:53:10;3.70;;;3.30;;
6037;SDS011;3047;42.600;23.470;2022-07-29T11:55:41;3.42;;;3.20;;
6037;SDS011;3047;42.600;23.470;2022-07-29T11:58:12;6.57;;;4.30;;
6037;SDS011;3047;42.600;23.470;2022-07-29T12:01:03;3.28;;;3.08;;
6037;SDS011;3047;42.600;23.470;2022-07-29T12:03:43;3.83;;;3.35;;
6037;SDS011;3047;42.600;23.470;2022-07-29T12:06:12;3.83;;;3.47;;
6037;SDS011;3047;42.600;23.470;2022-07-29T12:08:40;3.65;;;3.40;;
6037;SDS011;3047;42.600;23.470;2022-07-29T12:11:18;5.97;;;4.25;;
6037;SDS011;3047;42.600;23.470;2022-07-29T12:13:52;4.65;;;4.30;;
6037;SDS011;3047;42.600;23.470;2022-07-29T12:16:34;3.67;;;3.13;;
6037;SDS011;3047;42.600;23.470;2022-07-29T12:19:04;4.93;;;4.53;;
6037;SDS011;3047;42.600;23.470;2022-07-29T12:21:49;3.78;;;3.58;;
6037;SDS011;3047;42.600;23.470;2022-07-29T12:24:42;3.55;;;3.35;;
6037;SDS011;3047;42.600;23.470;2022-07-29T12:27:16;4.82;;;3.60;;
6037;SDS011;3047;42.600;23.470;2022-07-29T12:29:55;4.07;;;3.78;;
6037;SDS011;3047;42.600;23.470;2022-07-29T12:35:53;3.92;;;3.58;;
6037;SDS011;3047;42.600;23.470;2022-07-29T12:38:23;4.63;;;3.78;;
6037;SDS011;3047;42.600;23.470;2022-07-29T12:40:53;4.20;;;3.80;;
6037;SDS011;3047;42.600;23.470;2022-07-29T12:43:21;4.10;;;3.80;;
6037;SDS011;3047;42.600;23.470;2022-07-29T12:45:50;4.47;;;4.07;;
6037;SDS011;3047;42.600;23.470;2022-07-29T12:48:33;6.20;;;3.60;;
6037;SDS011;3047;42.600;23.470;2022-07-29T12:51:02;5.32;;;3.35;;
6037;SDS011;3047;42.600;23.470;2022-07-29T12:53:35;4.63;;;3.70;;
6037;SDS011;3047;42.600;23.470;2022-07-29T12:56:03;3.92;;;3.72;;
6037;SDS011;3047;42.600;23.470;2022-07-29T12:58:32;3.55;;;3.35;;
6037;SDS011;3047;42.600;23.470;2022-07-29T13:01:05;3.70;;;3.45;;
6037;SDS011;3047;42.600;23.470;2022-07-29T13:03:41;3.65;;;3.40;;
6037;SDS011;3047;42.600;23.470;2022-07-29T13:06:28;3.50;;;3.20;;
6037;SDS011;3047;42.600;23.470;2022-07-29T13:09:10;4.07;;;3.60;;
6037;SDS011;3047;42.600;23.470;2022-07-29T13:11:39;4.28;;;3.90;;
6037;SDS011;3047;42.600;23.470;2022-07-29T13:14:07;8.00;;;3.80;;
6037;SDS011;3047;42.600;23.470;2022-07-29T13:16:35;4.43;;;3.33;;
6037;SDS011;3047;42.600;23.470;2022-07-29T13:19:19;3.67;;;3.40;;
6037;SDS011;3047;42.600;23.470;2022-07-29T13:21:59;3.30;;;3.10;;
6037;SDS011;3047;42.600;23.470;2022-07-29T13:24:27;3.97;;;3.78;;
6037;SDS011;3047;42.600;23.470;2022-07-29T13:26:54;4.60;;;4.15;;
6037;SDS011;3047;42.600;23.470;2022-07-29T13:29:21;4.53;;;4.22;;
6037;SDS011;3047;42.600;23.470;2022-07-29T13:32:05;4.47;;;4.10;;
6037;SDS011;3047;42.600;23.470;2022-07-29T13:34:32;3.90;;;3.65;;
6037;SDS011;3047;42.600;23.470;2022-07-29T13:36:59;5.43;;;4.00;;
6037;SDS011;3047;42.600;23.470;2022-07-29T13:39:29;3.65;;;3.35;;
6037;SDS011;3047;42.600;23.470;2022-07-29T13:41:56;4.43;;;4.10;;
6037;SDS011;3047;42.600;23.470;2022-07-29T13:44:23;3.95;;;3.55;;
6037;SDS011;3047;42.600;23.470;2022-07-29T13:46:50;3.70;;;3.50;;
6037;SDS011;3047;42.600;23.470;2022-07-29T13:49:17;7.38;;;3.75;;
6037;SDS011;3047;42.600;23.470;2022-07-29T13:51:44;4.40;;;4.10;;
6037;SDS011;3047;42.600;23.470;2022-07-29T13:54:11;4.45;;;3.92;;
6037;SDS011;3047;42.600;23.470;2022-07-29T13:56:39;3.33;;;3.03;;
6037;SDS011;3047;42.600;23.470;2022-07-29T13:59:09;3.67;;;3.05;;
6037;SDS011;3047;42.600;23.470;2022-07-29T14:01:36;8.75;;;3.63;;
6037;SDS011;3047;42.600;23.470;2022-07-29T14:04:06;3.88;;;3.63;;
6037;SDS011;3047;42.600;23.470;2022-07-29T14:06:36;6.88;;;3.63;;
6037;SDS011;3047;42.600;23.470;2022-07-29T14:09:06;3.47;;;3.17;;
6037;SDS011;3047;42.600;23.470;2022-07-29T14:11:33;3.97;;;3.75;;
6037;SDS011;3047;42.600;23.470;2022-07-29T14:14:04;3.92;;;3.63;;
6037;SDS011;3047;42.600;23.470;2022-07-29T14:16:31;3.80;;;3.50;;
6037;SDS011;3047;42.600;23.470;2022-07-29T14:18:58;5.13;;;3.47;;
6037;SDS011;3047;42.600;23.470;2022-07-29T14:21:24;3.78;;;3.47;;
6037;SDS011;3047;42.600;23.470;2022-07-29T14:23:51;4.53;;;3.92;;
6037;SDS011;3047;42.600;23.470;2022-07-29T14:26:19;4.00;;;3.70;;
6037;SDS011;3047;42.600;23.470;2022-07-29T14:28:46;4.65;;;4.25;;
6037;SDS011;3047;42.600;23.470;2022-07-29T14:31:14;3.85;;;3.55;;
6037;SDS011;3047;42.600;23.470;2022-07-29T14:33:41;3.63;;;3.40;;
6037;SDS011;3047;42.600;23.470;2022-07-29T14:36:08;4.28;;;3.97;;
6037;SDS011;3047;42.600;23.470;2022-07-29T14:38:35;3.42;;;3.22;;
6037;SDS011;3047;42.600;23.470;2022-07-29T14:41:02;3.75;;;3.50;;
6037;SDS011;3047;42.600;23.470;2022-07-29T14:43:29;4.40;;;3.05;;
6037;SDS011;3047;42.600;23.470;2022-07-29T14:45:57;3.40;;;3.20;;
6037;SDS011;3047;42.600;23.470;2022-07-29T14:48:38;3.85;;;3.65;;
6037;SDS011;3047;42.600;23.470;2022-07-29T14:51:25;4.70;;;4.32;;
6037;SDS011;3047;42.600;23.470;2022-07-29T14:53:58;4.00;;;3.70;;
6037;SDS011;3047;42.600;23.470;2022-07-29T14:56:33;6.28;;;4.43;;
6037;SDS011;3047;42.600;23.470;2022-07-29T14:59:00;3.95;;;3.65;;
6037;SDS011;3047;42.600;23.470;2022-07-29T15:01:27;4.20;;;3.70;;
6037;SDS011;3047;42.600;23.470;2022-07-29T15:03:55;4.40;;;3.65;;
6037;SDS011;3047;42.600;23.470;2022-07-29T15:06:22;6.95;;;4.53;;
6037;SDS011;3047;42.600;23.470;2022-07-29T15:08:48;5.10;;;3.58;;
6037;SDS011;3047;42.600;23.470;2022-07-29T15:11:15;4.45;;;4.05;;
6037;SDS011;3047;42.600;23.470;2022-07-29T15:13:42;6.68;;;4.97;;
6037;SDS011;3047;42.600;23.470;2022-07-29T15:16:08;4.82;;;4.13;;
6037;SDS011;3047;42.600;23.470;2022-07-29T15:18:35;4.47;;;4.07;;
6037;SDS011;3047;42.600;23.470;2022-07-29T15:21:04;3.47;;;3.28;;
6037;SDS011;3047;42.600;23.470;2022-07-29T15:23:32;4.32;;;3.92;;
6037;SDS011;3047;42.600;23.470;2022-07-29T15:26:01;5.75;;;3.70;;
6037;SDS011;3047;42.600;23.470;2022-07-29T15:28:27;4.72;;;3.75;;